createdAt,value
2017-01-01T00:00:48.255Z,0
2017-01-01T00:01:46.594Z,0
2017-01-01T00:02:47.339Z,0
2017-01-01T00:03:46.963Z,0
2017-01-01T00:04:47.118Z,0
2017-01-01T00:05:47.476Z,0
2017-01-01T00:06:47.097Z,0
2017-01-01T00:07:47.110Z,0
2017-01-01T00:08:47.089Z,0
2017-01-01T00:09:47.846Z,0
2017-01-01T00:10:47.483Z,0
2017-01-01T00:11:47.970Z,0
2017-01-01T00:12:47.554Z,0
2017-01-01T00:13:47.087Z,0
2017-01-01T00:14:47.423Z,0
2017-01-01T00:15:46.920Z,0
2017-01-01T00:16:47.395Z,0
2017-01-01T00:17:47.124Z,0
2017-01-01T00:18:48.321Z,0
2017-01-01T00:19:46.913Z,0
2017-01-01T00:20:46.969Z,0
2017-01-01T00:21:48.502Z,0
2017-01-01T00:22:47.543Z,0
2017-01-01T00:23:47.174Z,0
2017-01-01T00:24:48.135Z,0
2017-01-01T00:25:47.107Z,0
2017-01-01T00:26:48.217Z,0
2017-01-01T00:27:48.883Z,0
2017-01-01T00:28:47.268Z,0
2017-01-01T00:29:47.909Z,0
2017-01-01T00:30:47.280Z,0
2017-01-01T00:31:47.165Z,0
2017-01-01T00:32:47.877Z,0
2017-01-01T00:33:47.107Z,0
2017-01-01T00:34:47.531Z,0
2017-01-01T00:35:46.943Z,0
2017-01-01T00:36:48.874Z,0
2017-01-01T00:37:46.564Z,0
2017-01-01T00:38:47.203Z,0
2017-01-01T00:39:48.119Z,0
2017-01-01T00:40:46.990Z,0
2017-01-01T00:41:47.070Z,0
2017-01-01T00:42:47.473Z,0
2017-01-01T00:43:47.555Z,0
2017-01-01T00:44:47.245Z,0
2017-01-01T00:45:48.322Z,0
2017-01-01T00:46:48.522Z,0
2017-01-01T00:47:47.646Z,0
2017-01-01T00:48:48.394Z,0
2017-01-01T00:49:48.494Z,0
2017-01-01T00:50:47.939Z,0
2017-01-01T00:51:47.442Z,0
2017-01-01T00:52:47.860Z,0
2017-01-01T00:53:48.663Z,0
2017-01-01T00:54:47.955Z,0
2017-01-01T00:55:47.097Z,0
2017-01-01T00:56:47.877Z,0
2017-01-01T00:57:47.855Z,0
2017-01-01T00:58:48.475Z,0
2017-01-01T00:59:47.885Z,0
2017-01-01T01:00:48.899Z,0
2017-01-01T01:01:48.473Z,0
2017-01-01T01:02:48.889Z,0
2017-01-01T01:03:47.591Z,0
2017-01-01T01:04:48.899Z,0
2017-01-01T01:05:47.486Z,0
2017-01-01T01:06:48.292Z,0
2017-01-01T01:07:47.675Z,0
2017-01-01T01:08:47.856Z,0
2017-01-01T01:09:48.581Z,0
2017-01-01T01:10:48.409Z,0
2017-01-01T01:11:48.135Z,0
2017-01-01T01:12:47.798Z,0
2017-01-01T01:13:48.333Z,0
2017-01-01T01:14:48.231Z,0
2017-01-01T01:15:47.913Z,0
2017-01-01T01:16:48.233Z,0
2017-01-01T01:17:48.154Z,0
2017-01-01T01:18:48.712Z,0
2017-01-01T01:19:47.924Z,0
2017-01-01T01:20:48.908Z,0
2017-01-01T01:21:47.935Z,0
2017-01-01T01:22:48.377Z,0
2017-01-01T01:23:48.084Z,0
2017-01-01T01:24:48.252Z,0
2017-01-01T01:25:47.238Z,0
2017-01-01T01:26:47.289Z,0
2017-01-01T01:27:48.337Z,0
2017-01-01T01:28:47.198Z,0
2017-01-01T01:29:47.730Z,0
2017-01-01T01:30:48.121Z,0
2017-01-01T01:31:48.119Z,0
2017-01-01T01:32:48.860Z,0
2017-01-01T01:33:47.825Z,0
2017-01-01T01:34:47.611Z,0
2017-01-01T01:35:47.981Z,0
2017-01-01T01:36:47.863Z,0
2017-01-01T01:37:47.335Z,0
2017-01-01T01:38:48.390Z,0
2017-01-01T01:39:48.555Z,0
2017-01-01T01:40:48.415Z,0
2017-01-01T01:41:47.492Z,0
2017-01-01T01:42:48.532Z,0
2017-01-01T01:43:47.997Z,0
2017-01-01T01:44:48.870Z,0
2017-01-01T01:45:47.810Z,0
2017-01-01T01:46:48.896Z,0
2017-01-01T01:47:48.980Z,0
2017-01-01T01:48:48.791Z,0
2017-01-01T01:49:48.149Z,0
2017-01-01T01:50:49.505Z,0
2017-01-01T01:51:48.302Z,0
2017-01-01T01:52:48.713Z,0
2017-01-01T01:53:48.362Z,0
2017-01-01T01:54:48.277Z,0
2017-01-01T01:55:48.498Z,0
2017-01-01T01:56:48.267Z,0
2017-01-01T01:57:48.749Z,0
2017-01-01T01:58:49.128Z,0
2017-01-01T01:59:47.855Z,0
2017-01-01T02:00:48.291Z,0
2017-01-01T02:01:48.689Z,0
2017-01-01T02:02:47.820Z,0
2017-01-01T02:03:49.169Z,0
2017-01-01T02:04:49.272Z,0
2017-01-01T02:05:48.182Z,0
2017-01-01T02:06:47.999Z,0
2017-01-01T02:07:48.391Z,0
2017-01-01T02:08:47.742Z,0
2017-01-01T02:09:49.221Z,0
2017-01-01T02:10:47.790Z,0
2017-01-01T02:11:48.322Z,0
2017-01-01T02:12:48.546Z,0
2017-01-01T02:13:47.504Z,0
2017-01-01T02:14:48.438Z,0
2017-01-01T02:15:48.373Z,0
2017-01-01T02:16:49.067Z,0
2017-01-01T02:17:48.860Z,0
2017-01-01T02:18:48.267Z,0
2017-01-01T02:19:48.416Z,0
2017-01-01T02:20:49.333Z,0
2017-01-01T02:21:49.098Z,0
2017-01-01T02:22:49.161Z,0
2017-01-01T02:23:48.650Z,0
2017-01-01T02:24:49.415Z,0
2017-01-01T02:25:48.743Z,0
2017-01-01T02:26:48.346Z,0
2017-01-01T02:27:48.501Z,0
2017-01-01T02:28:48.139Z,0
2017-01-01T02:29:48.523Z,0
2017-01-01T02:30:48.670Z,0
2017-01-01T02:31:48.059Z,0
2017-01-01T02:32:49.120Z,0
2017-01-01T02:33:49.485Z,0
2017-01-01T02:34:48.564Z,0
2017-01-01T02:35:48.644Z,0
2017-01-01T02:36:50.807Z,0
2017-01-01T02:37:49.773Z,0
2017-01-01T02:38:48.022Z,0
2017-01-01T02:39:48.733Z,0
2017-01-01T02:40:49.422Z,0
2017-01-01T02:41:48.815Z,0
2017-01-01T02:42:49.203Z,0
2017-01-01T02:43:49.010Z,0
2017-01-01T02:44:48.885Z,0
2017-01-01T02:45:49.776Z,0
2017-01-01T02:46:48.525Z,0
2017-01-01T02:47:47.948Z,0
2017-01-01T02:48:49.093Z,0
2017-01-01T02:49:49.645Z,0
2017-01-01T02:50:48.923Z,0
2017-01-01T02:51:48.982Z,0
2017-01-01T02:52:48.162Z,0
2017-01-01T02:53:49.518Z,0
2017-01-01T02:54:48.194Z,0
2017-01-01T02:55:48.669Z,0
2017-01-01T02:56:48.903Z,0
2017-01-01T02:57:48.477Z,0
2017-01-01T02:58:49.277Z,0
2017-01-01T02:59:48.648Z,0
2017-01-01T03:00:49.422Z,0
2017-01-01T03:01:47.925Z,0
2017-01-01T03:02:49.219Z,0
2017-01-01T03:03:48.360Z,0
2017-01-01T03:04:48.165Z,0
2017-01-01T03:05:49.802Z,0
2017-01-01T03:06:49.830Z,0
2017-01-01T03:07:48.866Z,0
2017-01-01T03:08:49.091Z,0
2017-01-01T03:09:50.505Z,0
2017-01-01T03:10:50.258Z,0
2017-01-01T03:11:48.296Z,0
2017-01-01T03:12:49.168Z,0
2017-01-01T03:13:48.364Z,0
2017-01-01T03:14:48.790Z,0
2017-01-01T03:15:49.125Z,0
2017-01-01T03:16:49.233Z,0
2017-01-01T03:17:50.428Z,0
2017-01-01T03:18:49.042Z,0
2017-01-01T03:19:49.123Z,0
2017-01-01T03:20:48.367Z,0
2017-01-01T03:21:49.931Z,0
2017-01-01T03:22:49.578Z,0
2017-01-01T03:23:48.585Z,0
2017-01-01T03:24:49.576Z,0
2017-01-01T03:25:49.090Z,0
2017-01-01T03:26:49.401Z,0
2017-01-01T03:27:48.701Z,0
2017-01-01T03:28:49.528Z,0
2017-01-01T03:29:49.446Z,0
2017-01-01T03:30:49.433Z,0
2017-01-01T03:31:48.666Z,0
2017-01-01T03:32:49.538Z,0
2017-01-01T03:33:49.061Z,0
2017-01-01T03:34:50.053Z,0
2017-01-01T03:35:49.205Z,0
2017-01-01T03:36:49.204Z,0
2017-01-01T03:37:49.436Z,0
2017-01-01T03:38:49.571Z,0
2017-01-01T03:39:49.460Z,0
2017-01-01T03:40:50.046Z,0
2017-01-01T03:41:50.077Z,0
2017-01-01T03:42:49.199Z,0
2017-01-01T03:43:48.718Z,0
2017-01-01T03:44:49.197Z,0
2017-01-01T03:45:48.929Z,0
2017-01-01T03:46:48.965Z,0
2017-01-01T03:47:49.063Z,0
2017-01-01T03:48:50.034Z,0
2017-01-01T03:49:49.828Z,0
2017-01-01T03:50:49.365Z,0
2017-01-01T03:51:49.246Z,0
2017-01-01T03:52:49.407Z,0
2017-01-01T03:53:49.426Z,0
2017-01-01T03:54:49.744Z,0
2017-01-01T03:55:51.101Z,0
2017-01-01T03:56:49.800Z,0
2017-01-01T03:57:49.170Z,0
2017-01-01T03:58:50.051Z,0
2017-01-01T03:59:49.464Z,0
2017-01-01T04:00:49.794Z,0
2017-01-01T04:01:50.899Z,0
2017-01-01T04:02:49.134Z,0
2017-01-01T04:03:48.697Z,0
2017-01-01T04:04:49.187Z,0
2017-01-01T04:05:49.077Z,0
2017-01-01T04:06:51.073Z,0
2017-01-01T04:07:49.890Z,0
2017-01-01T04:08:50.330Z,0
2017-01-01T04:09:50.675Z,0
2017-01-01T04:10:49.249Z,0
2017-01-01T04:11:49.242Z,0
2017-01-01T04:12:50.028Z,0
2017-01-01T04:13:49.893Z,0
2017-01-01T04:14:49.731Z,0
2017-01-01T04:15:50.007Z,0
2017-01-01T04:16:49.586Z,0
2017-01-01T04:17:50.329Z,0
2017-01-01T04:18:49.246Z,0
2017-01-01T04:19:50.007Z,0
2017-01-01T04:20:49.914Z,0
2017-01-01T04:21:49.549Z,0
2017-01-01T04:22:49.262Z,0
2017-01-01T04:23:50.645Z,0
2017-01-01T04:24:50.556Z,0
2017-01-01T04:25:49.457Z,0
2017-01-01T04:26:50.014Z,0
2017-01-01T04:27:49.754Z,0
2017-01-01T04:28:49.546Z,0
2017-01-01T04:29:49.875Z,0
2017-01-01T04:30:49.601Z,0
2017-01-01T04:31:51.435Z,0
2017-01-01T04:32:49.843Z,0
2017-01-01T04:33:50.788Z,0
2017-01-01T04:34:49.393Z,0
2017-01-01T04:35:50.234Z,0
2017-01-01T04:36:49.948Z,0
2017-01-01T04:37:49.617Z,0
2017-01-01T04:38:49.632Z,0
2017-01-01T04:39:49.574Z,0
2017-01-01T04:40:49.278Z,0
2017-01-01T04:41:50.353Z,0
2017-01-01T04:42:50.298Z,0
2017-01-01T04:43:50.156Z,0
2017-01-01T04:44:49.646Z,0
2017-01-01T04:45:49.312Z,0
2017-01-01T04:46:49.506Z,0
2017-01-01T04:47:50.034Z,0
2017-01-01T04:48:49.903Z,0
2017-01-01T04:49:50.649Z,0
2017-01-01T04:50:49.866Z,0
2017-01-01T04:51:50.635Z,0
2017-01-01T04:52:50.229Z,0
2017-01-01T04:53:50.010Z,0
2017-01-01T04:54:50.696Z,0
2017-01-01T04:55:49.716Z,0
2017-01-01T04:56:49.976Z,0
2017-01-01T04:57:49.842Z,0
2017-01-01T04:58:49.677Z,0
2017-01-01T04:59:50.589Z,0
2017-01-01T05:00:50.096Z,0
2017-01-01T05:01:49.851Z,0
2017-01-01T05:02:50.027Z,0
2017-01-01T05:03:50.530Z,0
2017-01-01T05:04:50.372Z,0
2017-01-01T05:05:49.708Z,0
2017-01-01T05:06:50.098Z,0
2017-01-01T05:07:50.494Z,0
2017-01-01T05:08:50.281Z,0
2017-01-01T05:09:50.209Z,0
2017-01-01T05:10:50.466Z,0
2017-01-01T05:11:50.737Z,0
2017-01-01T05:12:49.848Z,0
2017-01-01T05:13:50.018Z,0
2017-01-01T05:14:50.158Z,0
2017-01-01T05:15:49.657Z,0
2017-01-01T05:16:49.816Z,0
2017-01-01T05:17:51.080Z,0
2017-01-01T05:18:49.587Z,0
2017-01-01T05:19:49.887Z,0
2017-01-01T05:20:49.781Z,0
2017-01-01T05:21:50.842Z,0
2017-01-01T05:22:51.495Z,0
2017-01-01T05:23:50.880Z,0
2017-01-01T05:24:50.832Z,0
2017-01-01T05:25:50.475Z,0
2017-01-01T05:26:49.781Z,0
2017-01-01T05:27:50.067Z,0
2017-01-01T05:28:50.428Z,0
2017-01-01T05:29:51.031Z,0
2017-01-01T05:30:50.779Z,0
2017-01-01T05:31:50.022Z,0
2017-01-01T05:32:50.672Z,0
2017-01-01T05:33:50.808Z,0
2017-01-01T05:34:50.259Z,0
2017-01-01T05:35:50.740Z,0
2017-01-01T05:36:50.581Z,0
2017-01-01T05:37:51.196Z,0
2017-01-01T05:38:49.725Z,0
2017-01-01T05:39:50.340Z,0
2017-01-01T05:40:51.376Z,0
2017-01-01T05:41:51.625Z,0
2017-01-01T05:42:50.570Z,0
2017-01-01T05:43:51.105Z,0
2017-01-01T05:44:49.692Z,0
2017-01-01T05:45:50.540Z,0
2017-01-01T05:46:51.660Z,0
2017-01-01T05:47:50.267Z,0
2017-01-01T05:48:50.638Z,0
2017-01-01T05:49:50.735Z,0
2017-01-01T05:50:50.881Z,0
2017-01-01T05:51:52.008Z,0
2017-01-01T05:52:51.105Z,0
2017-01-01T05:53:50.831Z,0
2017-01-01T05:54:51.594Z,0
2017-01-01T05:55:50.092Z,0
2017-01-01T05:56:50.483Z,0
2017-01-01T05:58:00.508Z,0
2017-01-01T05:58:59.086Z,0
2017-01-01T05:59:59.253Z,0
2017-01-01T06:00:55.922Z,0
2017-01-01T06:01:53.544Z,0
2017-01-01T06:02:54.486Z,0
2017-01-01T06:03:53.584Z,0
2017-01-01T06:04:57.914Z,0
2017-01-01T06:05:54.616Z,0
2017-01-01T06:06:54.173Z,0
2017-01-01T06:07:55.895Z,0
2017-01-01T06:08:57.630Z,0
2017-01-01T06:09:57.316Z,0
2017-01-01T06:10:57.249Z,0
2017-01-01T06:11:56.976Z,0
2017-01-01T06:12:56.522Z,0
2017-01-01T06:13:55.457Z,0
2017-01-01T06:14:54.597Z,0
2017-01-01T06:15:55.941Z,0
2017-01-01T06:16:54.004Z,0
2017-01-01T06:17:55.930Z,0
2017-01-01T06:19:00.307Z,0
2017-01-01T06:19:54.887Z,0
2017-01-01T06:20:54.952Z,0
2017-01-01T06:21:58.616Z,0
2017-01-01T06:22:54.924Z,0
2017-01-01T06:23:58.900Z,0
2017-01-01T06:24:56.120Z,0
2017-01-01T06:25:56.361Z,0
2017-01-01T06:26:54.548Z,0
2017-01-01T06:27:56.393Z,0
2017-01-01T06:28:54.861Z,0
2017-01-01T06:29:55.434Z,0
2017-01-01T06:30:56.892Z,0
2017-01-01T06:31:56.329Z,0
2017-01-01T06:32:57.767Z,0
2017-01-01T06:33:57.649Z,0
2017-01-01T06:34:53.706Z,0
2017-01-01T06:35:56.256Z,0
2017-01-01T06:36:58.750Z,0
2017-01-01T06:37:55.724Z,0
2017-01-01T06:38:58.654Z,0
2017-01-01T06:39:59.598Z,0
2017-01-01T06:40:58.234Z,0
2017-01-01T06:41:55.528Z,0
2017-01-01T06:42:56.493Z,0
2017-01-01T06:44:50.602Z,0
2017-01-01T06:45:53.446Z,0
2017-01-01T06:46:54.144Z,0
2017-01-01T06:47:52.612Z,0
2017-01-01T06:48:52.003Z,0
2017-01-01T06:49:54.205Z,0
2017-01-01T06:50:53.203Z,0
2017-01-01T06:51:55.150Z,0
2017-01-01T06:52:54.494Z,0
2017-01-01T06:53:53.597Z,0
2017-01-01T06:54:53.684Z,0
2017-01-01T06:55:55.302Z,0
2017-01-01T06:56:53.922Z,0
2017-01-01T06:57:56.599Z,0
2017-01-01T06:58:55.395Z,0
2017-01-01T06:59:54.928Z,0
2017-01-01T07:00:55.917Z,0
2017-01-01T07:02:00.072Z,0
2017-01-01T07:02:55.618Z,0
2017-01-01T07:03:53.334Z,0
2017-01-01T07:04:55.668Z,0
2017-01-01T07:05:54.076Z,0
2017-01-01T07:06:58.596Z,0
2017-01-01T07:07:54.955Z,0
2017-01-01T07:09:00.183Z,0
2017-01-01T07:09:59.361Z,0
2017-01-01T07:10:53.181Z,0
2017-01-01T07:11:55.014Z,0
2017-01-01T07:12:58.126Z,0
2017-01-01T07:13:57.435Z,0
2017-01-01T07:14:52.534Z,0
2017-01-01T07:15:54.861Z,5
2017-01-01T07:17:53.336Z,5
2017-01-01T07:18:56.811Z,5
2017-01-01T07:19:56.509Z,5
2017-01-01T07:20:58.512Z,5
2017-01-01T07:21:59.253Z,5
2017-01-01T07:22:56.236Z,5
2017-01-01T07:23:59.484Z,5
2017-01-01T07:24:55.427Z,10
2017-01-01T07:25:57.152Z,10
2017-01-01T07:26:55.573Z,10
2017-01-01T07:27:53.373Z,10
2017-01-01T07:28:53.201Z,10
2017-01-01T07:29:55.065Z,10
2017-01-01T07:30:56.873Z,15
2017-01-01T07:31:56.252Z,15
2017-01-01T07:32:57.271Z,15
2017-01-01T07:33:56.003Z,15
2017-01-01T07:34:54.921Z,15
2017-01-01T07:35:52.913Z,15
2017-01-01T07:36:53.833Z,20
2017-01-01T07:37:53.091Z,20
2017-01-01T07:38:52.454Z,20
2017-01-01T07:39:53.084Z,25
2017-01-01T07:40:52.310Z,25
2017-01-01T07:41:53.479Z,25
2017-01-01T07:42:52.571Z,25
2017-01-01T07:43:53.124Z,25
2017-01-01T07:44:52.624Z,25
2017-01-01T07:45:52.540Z,25
2017-01-01T07:46:51.766Z,30
2017-01-01T07:47:53.504Z,30
2017-01-01T07:48:51.108Z,30
2017-01-01T07:49:51.762Z,30
2017-01-01T07:50:52.791Z,35
2017-01-01T07:51:52.054Z,35
2017-01-01T07:52:52.134Z,40
2017-01-01T07:53:51.845Z,40
2017-01-01T07:54:52.226Z,40
2017-01-01T07:55:51.876Z,40
2017-01-01T07:56:52.742Z,45
2017-01-01T07:57:51.869Z,45
2017-01-01T07:58:51.645Z,45
2017-01-01T07:59:52.237Z,50
2017-01-01T08:00:51.822Z,50
2017-01-01T08:01:52.649Z,50
2017-01-01T08:02:52.264Z,50
2017-01-01T08:03:51.657Z,50
2017-01-01T08:04:52.401Z,50
2017-01-01T08:05:51.366Z,50
2017-01-01T08:06:52.406Z,55
2017-01-01T08:07:52.387Z,55
2017-01-01T08:08:51.893Z,55
2017-01-01T08:09:52.234Z,60
2017-01-01T08:10:51.433Z,60
2017-01-01T08:11:52.446Z,65
2017-01-01T08:12:51.887Z,65
2017-01-01T08:13:52.561Z,65
2017-01-01T08:14:51.410Z,70
2017-01-01T08:15:51.680Z,70
2017-01-01T08:16:51.653Z,70
2017-01-01T08:17:51.748Z,75
2017-01-01T08:18:52.537Z,75
2017-01-01T08:19:51.761Z,75
2017-01-01T08:20:53.010Z,75
2017-01-01T08:21:52.486Z,75
2017-01-01T08:22:51.730Z,75
2017-01-01T08:23:52.223Z,75
2017-01-01T08:24:51.969Z,75
2017-01-01T08:25:52.266Z,80
2017-01-01T08:26:52.423Z,80
2017-01-01T08:27:52.259Z,80
2017-01-01T08:28:52.583Z,80
2017-01-01T08:29:53.667Z,80
2017-01-01T08:30:51.602Z,80
2017-01-01T08:31:52.638Z,80
2017-01-01T08:32:52.250Z,80
2017-01-01T08:33:52.400Z,85
2017-01-01T08:34:51.287Z,90
2017-01-01T08:35:52.080Z,85
2017-01-01T08:36:52.227Z,90
2017-01-01T08:37:52.615Z,90
2017-01-01T08:38:52.594Z,85
2017-01-01T08:39:53.280Z,90
2017-01-01T08:40:52.075Z,90
2017-01-01T08:41:52.090Z,95
2017-01-01T08:42:52.086Z,105
2017-01-01T08:43:52.666Z,110
2017-01-01T08:44:52.439Z,115
2017-01-01T08:45:52.860Z,120
2017-01-01T08:46:52.022Z,125
2017-01-01T08:47:51.653Z,130
2017-01-01T08:48:52.044Z,135
2017-01-01T08:49:51.637Z,130
2017-01-01T08:50:52.085Z,125
2017-01-01T08:51:53.069Z,120
2017-01-01T08:52:53.202Z,130
2017-01-01T08:53:52.833Z,130
2017-01-01T08:54:52.810Z,135
2017-01-01T08:55:52.944Z,135
2017-01-01T08:56:52.593Z,125
2017-01-01T08:57:53.655Z,120
2017-01-01T08:58:51.783Z,115
2017-01-01T08:59:52.907Z,115
2017-01-01T09:00:51.936Z,115
2017-01-01T09:01:52.624Z,110
2017-01-01T09:02:53.663Z,115
2017-01-01T09:03:51.989Z,120
2017-01-01T09:04:53.490Z,120
2017-01-01T09:05:52.823Z,120
2017-01-01T09:06:52.537Z,120
2017-01-01T09:07:53.201Z,125
2017-01-01T09:08:52.077Z,125
2017-01-01T09:09:55.004Z,120
2017-01-01T09:10:52.266Z,115
2017-01-01T09:11:52.888Z,110
2017-01-01T09:12:54.369Z,115
2017-01-01T09:13:53.155Z,110
2017-01-01T09:14:52.609Z,110
2017-01-01T09:15:53.050Z,110
2017-01-01T09:16:52.006Z,105
2017-01-01T09:17:52.582Z,100
2017-01-01T09:18:53.257Z,105
2017-01-01T09:19:52.353Z,105
2017-01-01T09:20:52.720Z,105
2017-01-01T09:21:52.855Z,105
2017-01-01T09:22:53.106Z,110
2017-01-01T09:23:53.896Z,115
2017-01-01T09:24:52.149Z,120
2017-01-01T09:25:51.821Z,125
2017-01-01T09:26:52.685Z,125
2017-01-01T09:27:52.109Z,125
2017-01-01T09:28:52.242Z,120
2017-01-01T09:29:53.173Z,120
2017-01-01T09:30:52.799Z,125
2017-01-01T09:31:54.085Z,130
2017-01-01T09:32:53.155Z,125
2017-01-01T09:33:53.340Z,130
2017-01-01T09:34:52.553Z,130
2017-01-01T09:35:53.601Z,135
2017-01-01T09:36:53.093Z,135
2017-01-01T09:37:55.299Z,140
2017-01-01T09:38:52.755Z,150
2017-01-01T09:39:53.524Z,160
2017-01-01T09:40:53.167Z,165
2017-01-01T09:41:52.677Z,170
2017-01-01T09:42:51.925Z,180
2017-01-01T09:43:53.620Z,185
2017-01-01T09:44:52.840Z,185
2017-01-01T09:45:53.186Z,185
2017-01-01T09:46:53.201Z,190
2017-01-01T09:47:52.724Z,195
2017-01-01T09:48:53.574Z,185
2017-01-01T09:49:53.335Z,180
2017-01-01T09:50:53.222Z,185
2017-01-01T09:51:54.724Z,185
2017-01-01T09:52:53.140Z,190
2017-01-01T09:53:53.679Z,205
2017-01-01T09:54:53.126Z,235
2017-01-01T09:55:52.776Z,235
2017-01-01T09:56:52.967Z,225
2017-01-01T09:57:52.752Z,210
2017-01-01T09:58:53.028Z,205
2017-01-01T09:59:53.091Z,205
2017-01-01T10:00:53.617Z,205
2017-01-01T10:01:53.284Z,210
2017-01-01T10:02:53.265Z,215
2017-01-01T10:03:53.490Z,215
2017-01-01T10:04:52.444Z,225
2017-01-01T10:05:53.595Z,225
2017-01-01T10:06:53.108Z,225
2017-01-01T10:07:53.922Z,225
2017-01-01T10:08:55.234Z,225
2017-01-01T10:09:56.436Z,235
2017-01-01T10:10:53.584Z,245
2017-01-01T10:11:55.233Z,270
2017-01-01T10:12:54.017Z,290
2017-01-01T10:13:55.063Z,295
2017-01-01T10:14:53.948Z,320
2017-01-01T10:15:54.649Z,335
2017-01-01T10:16:53.929Z,355
2017-01-01T10:17:56.082Z,380
2017-01-01T10:18:55.894Z,395
2017-01-01T10:19:55.150Z,415
2017-01-01T10:20:53.974Z,430
2017-01-01T10:21:56.265Z,435
2017-01-01T10:22:53.873Z,400
2017-01-01T10:23:54.107Z,375
2017-01-01T10:24:54.963Z,375
2017-01-01T10:25:55.057Z,370
2017-01-01T10:26:55.058Z,370
2017-01-01T10:27:54.463Z,365
2017-01-01T10:28:55.330Z,345
2017-01-01T10:29:54.298Z,330
2017-01-01T10:30:54.355Z,320
2017-01-01T10:31:53.994Z,310
2017-01-01T10:32:54.578Z,300
2017-01-01T10:33:54.635Z,295
2017-01-01T10:34:54.095Z,305
2017-01-01T10:35:54.841Z,310
2017-01-01T10:36:54.424Z,305
2017-01-01T10:37:54.891Z,285
2017-01-01T10:38:54.701Z,310
2017-01-01T10:39:53.855Z,350
2017-01-01T10:40:54.858Z,340
2017-01-01T10:41:54.910Z,320
2017-01-01T10:42:55.139Z,320
2017-01-01T10:43:55.226Z,330
2017-01-01T10:44:53.291Z,310
2017-01-01T10:45:54.351Z,310
2017-01-01T10:46:54.162Z,290
2017-01-01T10:47:54.387Z,295
2017-01-01T10:48:56.225Z,315
2017-01-01T10:49:55.442Z,300
2017-01-01T10:50:56.635Z,300
2017-01-01T10:51:54.813Z,325
2017-01-01T10:52:53.881Z,340
2017-01-01T10:53:56.166Z,340
2017-01-01T10:54:55.489Z,335
2017-01-01T10:55:57.683Z,380
2017-01-01T10:56:58.513Z,385
2017-01-01T10:57:56.657Z,370
2017-01-01T10:58:58.231Z,345
2017-01-01T10:59:57.253Z,325
2017-01-01T11:00:54.475Z,315
2017-01-01T11:01:57.176Z,305
2017-01-01T11:02:55.480Z,335
2017-01-01T11:04:57.343Z,365
2017-01-01T11:05:56.828Z,340
2017-01-01T11:06:54.757Z,350
2017-01-01T11:07:54.380Z,395
2017-01-01T11:08:54.290Z,355
2017-01-01T11:09:54.525Z,315
2017-01-01T11:10:54.258Z,320
2017-01-01T11:11:53.718Z,285
2017-01-01T11:12:53.644Z,350
2017-01-01T11:13:53.620Z,295
2017-01-01T11:14:53.334Z,275
2017-01-01T11:15:54.500Z,370
2017-01-01T11:16:54.594Z,405
2017-01-01T11:17:53.304Z,345
2017-01-01T11:18:53.329Z,310
2017-01-01T11:19:53.712Z,325
2017-01-01T11:20:53.595Z,325
2017-01-01T11:21:53.788Z,330
2017-01-01T11:22:53.609Z,350
2017-01-01T11:23:55.070Z,325
2017-01-01T11:24:53.828Z,325
2017-01-01T11:25:53.236Z,320
2017-01-01T11:26:54.732Z,345
2017-01-01T11:27:54.440Z,305
2017-01-01T11:28:54.594Z,290
2017-01-01T11:29:54.164Z,295
2017-01-01T11:30:54.682Z,315
2017-01-01T11:31:54.139Z,335
2017-01-01T11:32:54.150Z,300
2017-01-01T11:33:54.674Z,305
2017-01-01T11:34:54.166Z,310
2017-01-01T11:35:53.702Z,275
2017-01-01T11:36:54.465Z,300
2017-01-01T11:37:54.670Z,310
2017-01-01T11:38:54.201Z,315
2017-01-01T11:39:54.196Z,320
2017-01-01T11:40:54.052Z,300
2017-01-01T11:41:54.278Z,290
2017-01-01T11:42:54.514Z,300
2017-01-01T11:43:54.969Z,320
2017-01-01T11:44:53.791Z,320
2017-01-01T11:45:53.681Z,310
2017-01-01T11:46:54.506Z,300
2017-01-01T11:47:53.561Z,305
2017-01-01T11:48:55.412Z,295
2017-01-01T11:49:55.289Z,315
2017-01-01T11:50:53.818Z,305
2017-01-01T11:51:55.059Z,310
2017-01-01T11:52:53.832Z,335
2017-01-01T11:53:54.474Z,320
2017-01-01T11:54:54.504Z,335
2017-01-01T11:55:54.053Z,325
2017-01-01T11:56:54.715Z,335
2017-01-01T11:57:53.827Z,335
2017-01-01T11:58:54.449Z,330
2017-01-01T11:59:54.373Z,350
2017-01-01T12:00:54.278Z,310
2017-01-01T12:01:54.195Z,315
2017-01-01T12:02:54.356Z,290
2017-01-01T12:03:54.119Z,300
2017-01-01T12:04:54.095Z,290
2017-01-01T12:05:54.786Z,320
2017-01-01T12:06:53.901Z,320
2017-01-01T12:07:54.299Z,285
2017-01-01T12:08:54.568Z,300
2017-01-01T12:09:53.731Z,295
2017-01-01T12:10:55.119Z,305
2017-01-01T12:11:54.311Z,330
2017-01-01T12:12:54.552Z,290
2017-01-01T12:13:54.388Z,295
2017-01-01T12:14:54.280Z,300
2017-01-01T12:15:55.706Z,305
2017-01-01T12:16:54.484Z,325
2017-01-01T12:17:55.168Z,300
2017-01-01T12:18:54.973Z,300
2017-01-01T12:19:55.952Z,300
2017-01-01T12:20:54.825Z,285
2017-01-01T12:21:55.036Z,305
2017-01-01T12:22:55.180Z,345
2017-01-01T12:23:54.880Z,345
2017-01-01T12:24:55.741Z,320
2017-01-01T12:25:54.749Z,305
2017-01-01T12:26:56.941Z,320
2017-01-01T12:27:55.236Z,320
2017-01-01T12:28:54.374Z,345
2017-01-01T12:29:55.601Z,335
2017-01-01T12:30:55.047Z,330
2017-01-01T12:31:54.091Z,350
2017-01-01T12:32:54.174Z,320
2017-01-01T12:33:54.617Z,305
2017-01-01T12:34:55.287Z,335
2017-01-01T12:35:55.019Z,320
2017-01-01T12:36:55.020Z,305
2017-01-01T12:37:55.118Z,300
2017-01-01T12:38:54.547Z,285
2017-01-01T12:39:56.462Z,260
2017-01-01T12:40:55.114Z,275
2017-01-01T12:41:55.096Z,295
2017-01-01T12:42:54.629Z,275
2017-01-01T12:43:54.994Z,270
2017-01-01T12:44:54.516Z,275
2017-01-01T12:45:54.582Z,265
2017-01-01T12:46:56.296Z,265
2017-01-01T12:47:54.081Z,305
2017-01-01T12:48:54.730Z,310
2017-01-01T12:49:54.804Z,280
2017-01-01T12:50:57.013Z,365
2017-01-01T12:51:54.410Z,370
2017-01-01T12:52:54.344Z,360
2017-01-01T12:53:54.411Z,320
2017-01-01T12:54:54.858Z,335
2017-01-01T12:55:55.219Z,345
2017-01-01T12:56:55.827Z,315
2017-01-01T12:57:54.551Z,280
2017-01-01T12:58:54.607Z,265
2017-01-01T12:59:54.814Z,260
2017-01-01T13:00:55.439Z,290
2017-01-01T13:01:55.392Z,275
2017-01-01T13:02:54.912Z,305
2017-01-01T13:03:54.997Z,290
2017-01-01T13:04:55.170Z,280
2017-01-01T13:05:54.702Z,295
2017-01-01T13:06:55.298Z,305
2017-01-01T13:07:54.321Z,330
2017-01-01T13:08:55.695Z,350
2017-01-01T13:09:55.032Z,345
2017-01-01T13:10:54.525Z,340
2017-01-01T13:11:55.280Z,340
2017-01-01T13:12:55.695Z,320
2017-01-01T13:13:55.415Z,305
2017-01-01T13:14:55.075Z,265
2017-01-01T13:15:56.051Z,275
2017-01-01T13:16:55.794Z,265
2017-01-01T13:17:55.759Z,255
2017-01-01T13:18:55.027Z,270
2017-01-01T13:19:55.160Z,270
2017-01-01T13:20:54.774Z,265
2017-01-01T13:21:55.571Z,230
2017-01-01T13:22:54.937Z,215
2017-01-01T13:23:54.831Z,210
2017-01-01T13:24:55.118Z,200
2017-01-01T13:25:55.402Z,195
2017-01-01T13:26:55.091Z,210
2017-01-01T13:27:55.276Z,225
2017-01-01T13:28:55.272Z,205
2017-01-01T13:29:55.894Z,200
2017-01-01T13:30:56.173Z,200
2017-01-01T13:31:55.632Z,215
2017-01-01T13:32:55.322Z,210
2017-01-01T13:33:55.162Z,240
2017-01-01T13:34:55.252Z,245
2017-01-01T13:35:56.881Z,215
2017-01-01T13:36:55.031Z,230
2017-01-01T13:37:55.456Z,225
2017-01-01T13:38:56.370Z,205
2017-01-01T13:39:55.849Z,195
2017-01-01T13:40:55.288Z,200
2017-01-01T13:41:54.875Z,205
2017-01-01T13:42:55.134Z,200
2017-01-01T13:43:55.546Z,205
2017-01-01T13:44:55.924Z,200
2017-01-01T13:45:55.329Z,190
2017-01-01T13:46:55.034Z,200
2017-01-01T13:47:56.253Z,210
2017-01-01T13:48:57.178Z,195
2017-01-01T13:49:56.181Z,190
2017-01-01T13:50:56.156Z,190
2017-01-01T13:51:56.113Z,190
2017-01-01T13:52:55.363Z,200
2017-01-01T13:53:56.751Z,205
2017-01-01T13:54:55.400Z,195
2017-01-01T13:55:55.959Z,205
2017-01-01T13:56:56.039Z,185
2017-01-01T13:57:57.940Z,185
2017-01-01T13:58:55.930Z,185
2017-01-01T13:59:56.840Z,175
2017-01-01T14:00:56.907Z,175
2017-01-01T14:01:55.702Z,175
2017-01-01T14:02:55.262Z,160
2017-01-01T14:03:55.871Z,155
2017-01-01T14:04:55.341Z,150
2017-01-01T14:05:55.910Z,150
2017-01-01T14:06:55.682Z,155
2017-01-01T14:07:56.260Z,150
2017-01-01T14:08:55.835Z,155
2017-01-01T14:09:55.118Z,155
2017-01-01T14:10:56.885Z,155
2017-01-01T14:11:55.488Z,165
2017-01-01T14:12:55.529Z,160
2017-01-01T14:13:56.764Z,150
2017-01-01T14:14:55.668Z,145
2017-01-01T14:15:56.093Z,145
2017-01-01T14:16:55.694Z,145
2017-01-01T14:17:56.017Z,150
2017-01-01T14:18:56.480Z,140
2017-01-01T14:19:55.167Z,135
2017-01-01T14:20:56.086Z,135
2017-01-01T14:21:55.698Z,130
2017-01-01T14:22:56.782Z,130